• Join FlightAware (Why Join?)
  • Login
  • US Flag 
04:41PM EDT


 

Airport Tracker/Info


-or-


 

Live Flight TrackerFlight Track Log ✈ JIA2475 ✈ 19-Jun-2013 ✈ KDCA - KOAJ

Flight Track Log - Related Links

Times and Time Zones

All times are in EDT time to prevent confusion due to time zone crossing. See the JIA2475 flight status page for this flight to view local times or setup timezone preferences in your user account.

Time Position Orientation Groundspeed Altitude Reporting Facility
EDT Latitude Longitude Course Direction KTS MPH feet Rate Location/Type
10:03PM 38.8167 -77.0333 180° South 160 184 1,400  Level Potomac TRACON
10:04PM 38.7500 -77.0333 180° South 244 281 3,300 2,100 Climbing Potomac TRACON
10:05PM 38.6068 -76.7757 134° Southeast  Level FlightAware Approximate
10:05PM 38.6833 -77.0167 169° South 278 320 5,500  Level Potomac TRACON
10:06PM 38.5168 -76.7134 171° South  Level FlightAware Approximate
10:06PM 38.6000 -76.9833 163° South 307 353 8,500  Level Potomac TRACON
10:07PM 38.4110 -76.7000 180° South  Level FlightAware Approximate
10:07PM 38.5833 -76.8833 102° East 309 356 11,300  Level Potomac TRACON
10:08PM 38.3175 -76.6833 180° South  Level FlightAware Approximate
10:08PM 38.5667 -76.7833 102° East 309 356 13,600  Level Potomac TRACON
10:09PM 38.4931 -76.7217 147° Southeast 322 371 15,800 1,740 Climbing Washington Center
10:10PM 38.4017 -76.7069 173° South 327 376 17,700 1,560 Climbing Washington Center
10:11PM 38.2994 -76.6897 172° South 333 383 19,000 600 Climbing Washington Center
10:12PM 38.1933 -76.6750 174° South 358 412 19,000 60 Level Washington Center
10:13PM 38.0808 -76.6628 175° South 384 442 19,200 600 Climbing Washington Center
10:14PM 37.9664 -76.6481 174° South 405 466 20,200 900 Climbing Washington Center
10:15PM 37.8514 -76.6569 183° South 410 472 21,100 840 Climbing Washington Center
10:16PM 37.7344 -76.6736 186° South 415 478 22,000 840 Climbing Washington Center
10:17PM 37.6156 -76.6903 186° South 425 489 22,900 900 Climbing Washington Center
10:18PM 37.4986 -76.7044 185° South 425 489 23,800 540 Climbing Washington Center
10:19PM 37.3856 -76.7342 192° South 425 489 24,000 60 Climbing Washington Center
10:20PM 37.2767 -76.7794 198° South 420 483 24,000  Level Washington Center
10:21PM 37.1700 -76.8272 200° South 415 478 24,000  Level Washington Center
10:22PM 37.0631 -76.8725 199° South 410 472 24,000  Level Washington Center
10:23PM 36.9583 -76.9150 198° South 410 472 24,000  Level Washington Center
10:24PM 36.8472 -76.9519 195° South 410 472 24,000  Level Washington Center
10:25PM 36.7342 -76.9889 195° South 415 478 24,000  Level Washington Center
10:26PM 36.6189 -77.0283 195° South 426 490 24,000  Level Washington Center
10:27PM 36.5081 -77.0675 196° South 426 490 24,000 -120 Level Washington Center
10:28PM 36.4033 -77.0992 194° South 426 490 23,800 -660 Descending Washington Center
10:29PM 36.2797 -77.1406 195° South 426 490 22,700 -1,080 Descending Washington Center
10:30PM 36.1664 -77.1819 196° South 426 490 21,700 -1,080 Descending Washington Center
10:31PM 36.0553 -77.2133 193° South 415 478 20,600 -1,260 Descending Washington Center
10:32PM 35.9486 -77.2494 195° South 415 478 19,200 -1,380 Descending Washington Center
10:33PM 35.8436 -77.2858 196° South 410 472 17,900 -1,320 Descending Washington Center
10:34PM 35.7408 -77.3169 194° South 398 458 16,600 -1,440 Descending Washington Center
10:35PM 35.6403 -77.3506 195° South 387 445 15,100 -1,500 Descending Washington Center
10:36PM 35.5356 -77.3864 196° South 387 445 13,600 -1,560 Descending Washington Center
10:37PM 35.4411 -77.4175 195° South 374 430 12,000 -1,440 Descending Washington Center
10:38PM 35.3614 -77.4436 195° South 358 412 10,800 -1,380 Descending Washington Center
10:39PM 35.2839 -77.4672 194° South 324 373 9,300 -1,500 Descending Washington Center
10:40PM 35.2064 -77.4908 194° South 303 349 7,800 -1,440 Descending Washington Center
10:41PM 35.1286 -77.5197 197° South 293 337 6,400 -1,320 Descending Washington Center
10:42PM 35.0511 -77.5431 194° South 293 337 5,200 -1,320 Descending Washington Center
10:42PM 35.0069 -77.5647 202° Southwest 282 325 4,400 -840 Descending Washington Center
10:43PM 34.9453 -77.6217 217° Southwest 264 304 4,000 -300 Descending Washington Center
10:44PM 34.8925 -77.6708 217° Southwest 220 253 3,800 -240 Descending Washington Center